createdAt,value
2022-11-24T00:01:10.742Z,1.01
2022-11-24T00:03:37.344Z,0.90
2022-11-24T00:06:05.175Z,0.94
2022-11-24T00:08:31.719Z,0.88
2022-11-24T00:11:02.543Z,0.91
2022-11-24T00:13:29.117Z,0.97
2022-11-24T00:16:03.710Z,1.00
2022-11-24T00:18:30.243Z,1.07
2022-11-24T00:20:56.765Z,0.98
2022-11-24T00:23:23.308Z,0.86
2022-11-24T00:25:49.924Z,0.86
2022-11-24T00:28:16.416Z,1.01
2022-11-24T00:30:43.023Z,0.98
2022-11-24T00:33:09.531Z,0.93
2022-11-24T00:35:36.036Z,0.95
2022-11-24T00:38:02.606Z,0.73
2022-11-24T00:40:34.743Z,0.77
2022-11-24T00:43:01.665Z,0.90
2022-11-24T00:45:28.180Z,0.77
2022-11-24T00:47:54.719Z,0.69
2022-11-24T00:50:21.415Z,0.82
2022-11-24T00:52:48.041Z,0.94
2022-11-24T00:55:14.611Z,0.78
2022-11-24T00:57:41.255Z,0.69
2022-11-24T01:00:08.395Z,0.72
2022-11-24T01:02:35.019Z,0.70
2022-11-24T01:05:03.362Z,0.60
2022-11-24T01:07:30.689Z,0.54
2022-11-24T01:09:57.228Z,0.56
2022-11-24T01:12:23.711Z,0.64
2022-11-24T01:14:50.283Z,0.68
2022-11-24T01:17:16.803Z,0.67
2022-11-24T01:19:43.512Z,0.67
2022-11-24T01:22:10.045Z,0.80
2022-11-24T01:24:36.659Z,0.65
2022-11-24T01:27:03.274Z,0.53
2022-11-24T01:29:29.917Z,0.42
2022-11-24T01:31:56.458Z,0.39
2022-11-24T01:34:23.106Z,0.46
2022-11-24T01:36:49.670Z,0.46
2022-11-24T01:39:16.237Z,0.44
2022-11-24T01:41:42.790Z,0.42
2022-11-24T01:44:26.209Z,0.43
2022-11-24T01:46:54.679Z,0.53
2022-11-24T01:49:34.989Z,0.49
2022-11-24T01:52:06.666Z,0.45
2022-11-24T01:54:36.092Z,0.53
2022-11-24T01:57:06.684Z,0.48
2022-11-24T01:59:33.309Z,0.42
2022-11-24T02:01:59.952Z,0.42
2022-11-24T02:04:29.549Z,0.41
2022-11-24T02:06:57.782Z,0.37
2022-11-24T02:09:27.943Z,0.41
2022-11-24T02:11:55.193Z,0.43
2022-11-24T02:14:23.111Z,0.45
2022-11-24T02:16:50.583Z,0.44
2022-11-24T02:19:35.822Z,0.70
2022-11-24T02:22:03.121Z,0.52
2022-11-24T02:24:45.519Z,0.53
2022-11-24T02:27:12.105Z,0.52
2022-11-24T02:29:39.956Z,0.48
2022-11-24T02:32:07.621Z,0.38
2022-11-24T02:34:34.357Z,0.29
2022-11-24T02:37:01.164Z,0.24
2022-11-24T02:39:28.097Z,0.55
2022-11-24T02:42:01.652Z,0.68
2022-11-24T02:44:29.899Z,0.46
2022-11-24T02:47:05.873Z,0.40
2022-11-24T02:49:32.512Z,0.41
2022-11-24T02:51:59.247Z,0.41
2022-11-24T02:54:26.051Z,0.35
2022-11-24T02:56:52.767Z,0.31
2022-11-24T02:59:19.464Z,0.24
2022-11-24T03:01:46.038Z,0.36
2022-11-24T03:04:12.901Z,0.34
2022-11-24T03:06:39.632Z,0.24
2022-11-24T03:09:06.655Z,0.32
2022-11-24T03:11:33.261Z,0.28
2022-11-24T03:13:59.763Z,0.21
2022-11-24T03:16:26.527Z,0.24
2022-11-24T03:18:53.830Z,0.08
2022-11-24T03:21:20.356Z,-0.09
2022-11-24T03:23:47.276Z,0.03
2022-11-24T03:26:16.419Z,0.16
2022-11-24T03:28:43.160Z,0.30
2022-11-24T03:31:10.224Z,0.19
2022-11-24T03:33:36.795Z,0.16
2022-11-24T03:36:09.948Z,0.17
2022-11-24T03:38:40.485Z,0.06
2022-11-24T03:41:07.263Z,0.18
2022-11-24T03:43:36.792Z,0.06
2022-11-24T03:46:09.265Z,0.02
2022-11-24T03:48:35.951Z,0.04
2022-11-24T03:51:04.978Z,0.10
2022-11-24T03:53:32.357Z,0.08
2022-11-24T03:55:59.648Z,-0.01
2022-11-24T03:58:26.344Z,0.01
2022-11-24T04:00:54.118Z,0.01
2022-11-24T04:03:20.837Z,0.08
2022-11-24T04:05:47.453Z,0.18
2022-11-24T04:08:17.555Z,0.03
2022-11-24T04:10:44.399Z,0.09
2022-11-24T04:13:15.128Z,0.01
2022-11-24T04:15:42.567Z,-0.06
2022-11-24T04:18:12.363Z,-0.07
2022-11-24T04:20:39.285Z,0.02
2022-11-24T04:23:06.131Z,-0.11
2022-11-24T04:25:32.964Z,-0.11
2022-11-24T04:27:59.720Z,-0.10
2022-11-24T04:30:27.052Z,-0.01
2022-11-24T04:32:54.062Z,0.00
2022-11-24T04:35:20.973Z,-0.21
2022-11-24T04:37:47.827Z,-0.13
2022-11-24T04:40:18.607Z,-0.15
2022-11-24T04:42:52.453Z,-0.11
2022-11-24T04:45:18.974Z,-0.17
2022-11-24T04:47:48.805Z,-0.45
2022-11-24T04:50:15.645Z,-0.16
2022-11-24T04:52:43.438Z,-0.22
2022-11-24T04:55:10.352Z,-0.23
2022-11-24T04:57:36.974Z,-0.12
2022-11-24T05:00:04.424Z,-0.06
2022-11-24T05:02:31.005Z,-0.04
2022-11-24T05:04:57.654Z,-0.07
2022-11-24T05:07:24.259Z,-0.20
2022-11-24T05:10:09.420Z,-0.24
2022-11-24T05:12:35.923Z,-0.26
2022-11-24T05:15:03.934Z,-0.30
2022-11-24T05:17:34.061Z,-0.32
2022-11-24T05:20:00.781Z,-0.31
2022-11-24T05:22:28.494Z,-0.47
2022-11-24T05:24:55.101Z,-0.47
2022-11-24T05:27:21.964Z,-0.38
2022-11-24T05:29:48.562Z,-0.30
2022-11-24T05:32:15.055Z,-0.40
2022-11-24T05:34:41.787Z,-0.35
2022-11-24T05:37:08.380Z,-0.25
2022-11-24T05:39:35.958Z,-0.40
2022-11-24T05:42:22.132Z,-0.38
2022-11-24T05:44:48.785Z,-0.38
2022-11-24T05:47:15.372Z,-0.46
2022-11-24T05:49:42.171Z,-0.57
2022-11-24T05:52:09.140Z,-0.51
2022-11-24T05:54:35.909Z,-0.38
2022-11-24T05:57:02.591Z,-0.41
2022-11-24T05:59:29.196Z,-0.46
2022-11-24T06:01:55.841Z,-0.51
2022-11-24T06:04:22.513Z,-0.57
2022-11-24T06:06:49.250Z,-0.60
2022-11-24T06:09:15.759Z,-0.53
2022-11-24T06:11:42.330Z,-0.40
2022-11-24T06:14:11.312Z,-0.42
2022-11-24T06:16:38.360Z,-0.53
2022-11-24T06:19:05.017Z,-0.74
2022-11-24T06:21:31.969Z,-0.60
2022-11-24T06:23:58.696Z,-0.66
2022-11-24T06:26:25.337Z,-0.53
2022-11-24T06:28:51.862Z,-0.59
2022-11-24T06:31:18.926Z,-0.54
2022-11-24T06:33:45.724Z,-0.52
2022-11-24T06:36:13.335Z,-0.52
2022-11-24T06:38:39.934Z,-0.59
2022-11-24T06:41:12.445Z,-0.47
2022-11-24T06:43:39.882Z,-0.42
2022-11-24T06:46:06.641Z,-0.42
2022-11-24T06:48:42.753Z,-0.43
2022-11-24T06:51:10.964Z,-0.51
2022-11-24T06:53:38.402Z,-0.51
2022-11-24T06:56:15.274Z,-0.48
2022-11-24T06:58:44.413Z,-0.32
2022-11-24T07:01:14.763Z,-0.34
2022-11-24T07:03:41.372Z,-0.42
2022-11-24T07:06:11.097Z,-0.41
2022-11-24T07:08:43.202Z,-0.37
2022-11-24T07:11:12.234Z,-0.34
2022-11-24T07:13:39.233Z,-0.30
2022-11-24T07:16:23.817Z,-0.34
2022-11-24T07:18:59.962Z,-0.34
2022-11-24T07:21:32.490Z,-0.31
2022-11-24T07:24:04.162Z,-0.30
2022-11-24T07:26:45.494Z,-0.15
2022-11-24T07:29:13.171Z,-0.27
2022-11-24T07:31:46.198Z,-0.25
2022-11-24T07:34:19.067Z,-0.16
2022-11-24T07:37:04.358Z,-0.23
2022-11-24T07:39:40.665Z,-0.09
2022-11-24T07:42:19.501Z,-0.12
2022-11-24T07:44:49.574Z,-0.28
2022-11-24T07:47:21.271Z,-0.22
2022-11-24T07:49:55.008Z,-0.14
2022-11-24T07:52:28.476Z,-0.10
2022-11-24T07:55:01.076Z,0.02
2022-11-24T07:57:30.595Z,0.04
2022-11-24T08:00:00.080Z,0.17
2022-11-24T08:05:21.920Z,0.21
2022-11-24T08:10:55.111Z,0.21
2022-11-24T08:13:33.099Z,0.21
2022-11-24T08:16:32.800Z,0.21
2022-11-24T08:19:14.978Z,0.25
2022-11-24T08:24:46.961Z,0.30
2022-11-24T08:27:14.959Z,0.38
2022-11-24T08:29:46.757Z,0.47
2022-11-24T08:32:22.085Z,0.51
2022-11-24T08:35:12.997Z,0.57
2022-11-24T08:37:46.622Z,0.58
2022-11-24T08:40:16.878Z,0.64
2022-11-24T08:42:51.277Z,0.62
2022-11-24T08:45:23.075Z,0.67
2022-11-24T08:47:54.418Z,0.78
2022-11-24T08:50:21.645Z,0.73
2022-11-24T08:52:48.576Z,0.85
2022-11-24T08:55:15.347Z,0.75
2022-11-24T08:57:42.158Z,0.95
2022-11-24T09:00:09.430Z,0.98
2022-11-24T09:02:36.369Z,1.06
2022-11-24T09:05:03.325Z,1.12
2022-11-24T09:07:31.754Z,1.24
2022-11-24T09:09:59.495Z,1.13
2022-11-24T09:12:26.321Z,1.28
2022-11-24T09:14:52.930Z,1.36
2022-11-24T09:17:19.417Z,1.44
2022-11-24T09:19:46.691Z,1.47
2022-11-24T09:22:13.668Z,1.29
2022-11-24T09:24:40.299Z,1.51
2022-11-24T09:27:06.858Z,1.68
2022-11-24T09:29:33.780Z,1.60
2022-11-24T09:32:06.299Z,1.60
2022-11-24T09:34:33.501Z,1.65
2022-11-24T09:37:01.319Z,1.98
2022-11-24T09:39:27.904Z,2.08
2022-11-24T09:42:00.472Z,2.06
2022-11-24T09:44:33.312Z,1.95
2022-11-24T09:47:20.329Z,2.10
2022-11-24T09:49:54.930Z,2.13
2022-11-24T09:52:31.366Z,2.19
2022-11-24T09:55:00.454Z,2.24
2022-11-24T09:57:34.284Z,2.25
2022-11-24T10:00:10.885Z,2.24
2022-11-24T10:02:40.405Z,2.51
2022-11-24T10:05:07.311Z,2.45
2022-11-24T10:07:38.190Z,2.44
2022-11-24T10:10:22.856Z,2.42
2022-11-24T10:13:00.105Z,2.45
2022-11-24T10:15:36.126Z,2.50
2022-11-24T10:18:21.148Z,2.34
2022-11-24T10:20:59.991Z,2.22
2022-11-24T10:23:45.499Z,2.65
2022-11-24T10:26:18.073Z,2.90
2022-11-24T10:29:07.626Z,2.94
2022-11-24T10:31:40.431Z,2.85
2022-11-24T10:34:28.374Z,2.97
2022-11-24T10:37:04.235Z,2.93
2022-11-24T10:39:36.506Z,2.90
2022-11-24T10:42:15.297Z,2.93
2022-11-24T10:45:31.308Z,3.12
2022-11-24T10:47:58.546Z,3.07
2022-11-24T10:50:34.329Z,3.20
2022-11-24T10:53:09.684Z,2.80
2022-11-24T10:56:01.335Z,3.01
2022-11-24T10:58:38.071Z,2.90
2022-11-24T11:01:17.474Z,3.00
2022-11-24T11:03:50.047Z,2.99
2022-11-24T11:06:22.696Z,2.99
2022-11-24T11:09:25.582Z,3.04
2022-11-24T11:11:54.021Z,3.10
2022-11-24T11:14:40.867Z,3.20
2022-11-24T11:17:27.481Z,3.11
2022-11-24T11:20:01.968Z,3.26
2022-11-24T11:22:32.920Z,3.37
2022-11-24T11:25:11.912Z,3.33
2022-11-24T11:27:39.309Z,3.51
2022-11-24T11:35:50.282Z,3.60
2022-11-24T11:38:18.985Z,3.69
2022-11-24T11:40:47.574Z,3.94
2022-11-24T11:43:26.781Z,3.83
2022-11-24T11:46:12.741Z,4.05
2022-11-24T11:48:44.087Z,3.83
2022-11-24T11:51:27.738Z,3.87
2022-11-24T11:54:00.782Z,3.85
2022-11-24T11:56:33.009Z,3.85
2022-11-24T11:58:59.456Z,3.84
2022-11-24T12:01:58.676Z,3.81
2022-11-24T12:04:43.796Z,3.84
2022-11-24T12:07:30.780Z,3.87
2022-11-24T12:10:16.368Z,3.92
2022-11-24T12:13:11.258Z,4.08
2022-11-24T12:15:46.740Z,4.11
2022-11-24T12:18:48.417Z,4.09
2022-11-24T12:21:11.676Z,4.11
2022-11-24T12:23:38.217Z,4.18
2022-11-24T12:26:24.380Z,4.19
2022-11-24T12:28:56.692Z,4.17
2022-11-24T12:31:42.141Z,3.98
2022-11-24T12:34:08.849Z,4.14
2022-11-24T12:36:54.172Z,4.10
2022-11-24T12:39:28.345Z,4.21
2022-11-24T12:41:54.825Z,4.28
2022-11-24T12:44:40.266Z,4.24
2022-11-24T12:47:27.443Z,4.21
2022-11-24T12:49:59.981Z,4.30
2022-11-24T12:52:29.942Z,4.24
2022-11-24T12:54:56.932Z,4.08
2022-11-24T12:57:26.261Z,4.14
2022-11-24T13:00:15.943Z,4.79
2022-11-24T13:02:57.658Z,4.41
2022-11-24T13:05:29.566Z,4.26
2022-11-24T13:07:57.695Z,4.25
2022-11-24T13:10:53.519Z,4.12
2022-11-24T13:13:14.530Z,4.08
2022-11-24T13:16:34.783Z,4.08
2022-11-24T13:18:53.686Z,4.14
2022-11-24T13:21:33.788Z,4.08
2022-11-24T13:24:02.163Z,4.09
2022-11-24T13:26:30.072Z,4.09
2022-11-24T13:29:17.970Z,4.26
2022-11-24T13:31:51.141Z,4.16
2022-11-24T13:34:36.522Z,4.24
2022-11-24T13:37:33.690Z,4.31
2022-11-24T13:39:51.166Z,4.28
2022-11-24T13:42:44.056Z,4.29
2022-11-24T13:45:07.071Z,4.16
2022-11-24T13:47:33.497Z,4.22
2022-11-24T13:50:00.851Z,4.31
2022-11-24T13:52:36.338Z,4.34
2022-11-24T13:55:10.053Z,4.31
2022-11-24T13:57:53.004Z,4.39
2022-11-24T14:00:24.224Z,4.38
2022-11-24T14:02:52.418Z,4.33
2022-11-24T14:05:47.933Z,4.30
2022-11-24T14:08:24.268Z,4.22
2022-11-24T14:10:51.815Z,4.28
2022-11-24T14:13:21.200Z,4.24
2022-11-24T14:16:00.811Z,4.23
2022-11-24T14:18:48.753Z,4.19
2022-11-24T14:21:24.795Z,4.14
2022-11-24T14:23:56.331Z,4.15
2022-11-24T14:26:34.226Z,4.12
2022-11-24T14:29:14.955Z,4.11
2022-11-24T14:31:42.102Z,4.11
2022-11-24T14:34:11.670Z,4.13
2022-11-24T14:36:38.891Z,4.08
2022-11-24T14:39:05.901Z,4.07
2022-11-24T14:41:33.922Z,4.09
2022-11-24T14:44:04.933Z,4.06
2022-11-24T14:46:32.194Z,4.10
2022-11-24T14:48:58.963Z,4.05
2022-11-24T14:51:28.193Z,3.99
2022-11-24T14:54:00.831Z,4.01
2022-11-24T14:56:32.854Z,3.98
2022-11-24T14:58:59.590Z,3.95
2022-11-24T15:01:31.482Z,3.94
2022-11-24T15:04:26.459Z,3.96
2022-11-24T15:07:02.283Z,3.95
2022-11-24T15:09:39.652Z,3.91
2022-11-24T15:12:07.428Z,3.94
2022-11-24T15:14:40.323Z,3.93
2022-11-24T15:17:07.001Z,3.92
2022-11-24T15:19:34.397Z,3.96
2022-11-24T15:22:00.965Z,3.92
2022-11-24T15:24:27.765Z,3.89
2022-11-24T15:27:01.127Z,3.93
2022-11-24T15:29:27.628Z,4.02
2022-11-24T15:31:54.161Z,3.92
2022-11-24T15:34:20.690Z,3.88
2022-11-24T15:36:47.210Z,3.87
2022-11-24T15:39:13.649Z,3.85
2022-11-24T15:41:40.587Z,3.86
2022-11-24T15:44:07.898Z,3.85
2022-11-24T15:46:38.149Z,3.89
2022-11-24T15:49:05.465Z,3.92
2022-11-24T15:51:32.244Z,4.01
2022-11-24T15:54:01.039Z,3.96
2022-11-24T15:56:34.587Z,3.96
2022-11-24T15:59:01.469Z,3.92
2022-11-24T16:01:30.424Z,3.94
2022-11-24T16:03:57.025Z,3.92
2022-11-24T16:06:24.996Z,3.94
2022-11-24T16:08:52.326Z,3.93
2022-11-24T16:11:18.833Z,3.92
2022-11-24T16:13:51.502Z,3.91
2022-11-24T16:16:19.406Z,3.93
2022-11-24T16:18:46.031Z,3.83
2022-11-24T16:21:18.535Z,3.91
2022-11-24T16:23:51.342Z,4.02
2022-11-24T16:26:21.116Z,3.91
2022-11-24T16:28:47.635Z,3.95
2022-11-24T16:31:43.269Z,3.87
2022-11-24T16:34:17.566Z,3.79
2022-11-24T16:36:47.501Z,3.75
2022-11-24T16:39:22.486Z,3.71
2022-11-24T16:42:01.047Z,3.63
2022-11-24T16:44:38.154Z,3.49
2022-11-24T16:47:23.026Z,3.45
2022-11-24T16:49:55.526Z,3.40
2022-11-24T16:52:30.900Z,3.29
2022-11-24T16:54:58.311Z,3.26
2022-11-24T16:57:32.191Z,3.26
2022-11-24T16:59:58.691Z,3.23
2022-11-24T17:02:27.682Z,3.44
2022-11-24T17:04:55.640Z,3.35
2022-11-24T17:07:25.353Z,3.37
2022-11-24T17:09:52.337Z,3.38
2022-11-24T17:12:18.959Z,3.41
2022-11-24T17:15:03.050Z,3.44
2022-11-24T17:18:01.221Z,3.44
2022-11-24T17:20:28.279Z,3.44
2022-11-24T17:23:00.253Z,3.48
2022-11-24T17:25:26.920Z,3.52
2022-11-24T17:27:54.167Z,3.51
2022-11-24T17:30:20.684Z,3.52
2022-11-24T17:32:50.222Z,3.57
2022-11-24T17:35:25.208Z,3.52
2022-11-24T17:37:59.788Z,3.42
2022-11-24T17:40:28.981Z,3.45
2022-11-24T17:42:59.748Z,3.46
2022-11-24T17:45:27.563Z,3.45
2022-11-24T17:47:54.710Z,3.44
2022-11-24T17:50:26.021Z,3.44
2022-11-24T17:52:54.544Z,3.44
2022-11-24T17:55:21.461Z,3.46
2022-11-24T17:57:48.002Z,3.46
2022-11-24T18:00:15.141Z,3.48
2022-11-24T18:02:43.416Z,3.44
2022-11-24T18:05:10.009Z,3.39
2022-11-24T18:07:41.394Z,3.35
2022-11-24T18:10:10.392Z,3.38
2022-11-24T18:12:39.909Z,3.32
2022-11-24T18:15:06.965Z,3.30
2022-11-24T18:17:33.492Z,3.28
2022-11-24T18:20:00.404Z,3.26
2022-11-24T18:22:50.172Z,3.22
2022-11-24T18:25:13.891Z,3.18
2022-11-24T18:27:41.522Z,3.13
2022-11-24T18:30:20.820Z,3.11
2022-11-24T18:32:50.475Z,3.06
2022-11-24T18:35:17.177Z,2.99
2022-11-24T18:37:44.656Z,2.89
2022-11-24T18:40:12.054Z,2.75
2022-11-24T18:42:41.632Z,2.72
2022-11-24T18:45:10.797Z,2.65
2022-11-24T18:47:37.403Z,2.51
2022-11-24T18:50:04.216Z,2.43
2022-11-24T18:52:31.017Z,2.33
2022-11-24T18:55:03.987Z,2.24
2022-11-24T18:57:31.768Z,2.17
2022-11-24T18:59:58.646Z,2.14
2022-11-24T19:02:25.285Z,2.03
2022-11-24T19:04:54.225Z,1.92
2022-11-24T19:07:21.985Z,1.81
2022-11-24T19:09:49.708Z,1.79
2022-11-24T19:12:16.543Z,1.77
2022-11-24T19:14:51.470Z,1.75
2022-11-24T19:17:32.669Z,1.68
2022-11-24T19:20:07.919Z,1.68
2022-11-24T19:22:34.428Z,1.64
2022-11-24T19:25:04.090Z,1.60
2022-11-24T19:27:34.376Z,1.56
2022-11-24T19:30:00.840Z,1.55
2022-11-24T19:32:27.523Z,1.56
2022-11-24T19:34:56.546Z,1.56
2022-11-24T19:37:23.780Z,1.57
2022-11-24T19:39:50.410Z,1.50
2022-11-24T19:42:16.874Z,1.46
2022-11-24T19:44:43.488Z,1.45
2022-11-24T19:47:16.511Z,1.40
2022-11-24T19:49:43.282Z,1.35
2022-11-24T19:52:10.022Z,1.32
2022-11-24T19:54:36.952Z,1.27
2022-11-24T19:57:03.750Z,1.21
2022-11-24T19:59:30.476Z,1.13
2022-11-24T20:01:59.653Z,1.10
2022-11-24T20:04:26.237Z,1.05
2022-11-24T20:06:55.115Z,1.02
2022-11-24T20:09:21.956Z,1.00
2022-11-24T20:11:50.906Z,1.03
2022-11-24T20:14:19.346Z,0.98
2022-11-24T20:16:47.788Z,0.89
2022-11-24T20:19:15.913Z,0.83
2022-11-24T20:21:46.501Z,0.89
2022-11-24T20:24:20.483Z,0.93
2022-11-24T20:26:51.244Z,1.01
2022-11-24T20:29:20.670Z,0.96
2022-11-24T20:31:48.885Z,1.01
2022-11-24T20:34:16.091Z,0.99
2022-11-24T20:36:46.911Z,1.04
2022-11-24T20:39:15.200Z,1.04
2022-11-24T20:41:41.856Z,1.13
2022-11-24T20:44:10.631Z,1.18
2022-11-24T20:46:38.247Z,1.23
2022-11-24T20:49:07.488Z,1.26
2022-11-24T20:51:35.572Z,1.33
2022-11-24T20:54:03.995Z,1.41
2022-11-24T20:56:32.119Z,1.42
2022-11-24T20:59:19.657Z,1.42
2022-11-24T21:01:46.859Z,1.54
2022-11-24T21:04:21.575Z,1.60
2022-11-24T21:06:48.324Z,1.60
2022-11-24T21:09:15.619Z,1.61
2022-11-24T21:11:47.535Z,1.61
2022-11-24T21:14:14.410Z,1.67
2022-11-24T21:16:42.102Z,1.69
2022-11-24T21:19:13.786Z,1.67
2022-11-24T21:21:45.476Z,1.70
2022-11-24T21:24:13.519Z,1.71
2022-11-24T21:26:43.660Z,1.69
2022-11-24T21:29:14.366Z,1.75
2022-11-24T21:31:41.570Z,1.70
2022-11-24T21:34:19.816Z,1.73
2022-11-24T21:36:46.585Z,1.73
2022-11-24T21:39:14.219Z,1.74
2022-11-24T21:41:42.311Z,1.71
2022-11-24T21:44:10.468Z,1.76
2022-11-24T21:46:44.655Z,1.75
2022-11-24T21:49:13.589Z,1.77
2022-11-24T21:51:40.447Z,1.75
2022-11-24T21:54:07.175Z,1.80
2022-11-24T21:56:33.922Z,1.76
2022-11-24T21:59:00.500Z,1.79
2022-11-24T22:01:28.822Z,1.80
2022-11-24T22:04:09.431Z,1.83
2022-11-24T22:06:37.888Z,1.82
2022-11-24T22:09:07.844Z,1.78
2022-11-24T22:11:34.392Z,1.79
2022-11-24T22:14:00.974Z,1.83
2022-11-24T22:16:27.617Z,1.83
2022-11-24T22:18:54.262Z,1.89
2022-11-24T22:21:33.616Z,1.87
2022-11-24T22:24:00.715Z,1.88
2022-11-24T22:26:28.076Z,1.91
2022-11-24T22:28:55.139Z,1.95
2022-11-24T22:31:26.165Z,1.96
2022-11-24T22:33:53.400Z,1.94
2022-11-24T22:36:23.343Z,1.96
2022-11-24T22:38:55.787Z,1.99
2022-11-24T22:41:22.505Z,1.98
2022-11-24T22:43:49.388Z,2.00
2022-11-24T22:46:17.070Z,2.00
2022-11-24T22:48:45.292Z,2.01
2022-11-24T22:51:13.205Z,1.99
2022-11-24T22:53:39.998Z,2.00
2022-11-24T22:56:09.454Z,2.00
2022-11-24T22:58:36.455Z,2.04
2022-11-24T23:01:10.369Z,2.01
2022-11-24T23:03:37.568Z,2.07
2022-11-24T23:06:06.529Z,2.06
2022-11-24T23:08:34.162Z,2.05
2022-11-24T23:11:08.496Z,2.02
2022-11-24T23:13:36.610Z,2.06
2022-11-24T23:16:05.474Z,2.08
2022-11-24T23:18:32.799Z,2.09
2022-11-24T23:21:05.746Z,2.16
2022-11-24T23:23:32.690Z,2.18
2022-11-24T23:26:03.828Z,2.15
2022-11-24T23:28:30.644Z,2.18
2022-11-24T23:31:01.341Z,2.20
2022-11-24T23:33:27.879Z,2.20
2022-11-24T23:35:54.326Z,2.20
2022-11-24T23:38:20.840Z,2.23
2022-11-24T23:40:47.308Z,2.21
2022-11-24T23:43:13.806Z,2.22
2022-11-24T23:45:40.357Z,2.19
2022-11-24T23:48:08.591Z,2.17
2022-11-24T23:50:35.365Z,2.22
2022-11-24T23:53:01.860Z,2.28
2022-11-24T23:55:28.388Z,2.31
2022-11-24T23:57:54.928Z,2.28
